sensor_id;sensor_type;location;lat;lon;timestamp;P1;durP1;ratioP1;P2;durP2;ratioP2
23684;SDS011;12020;51.384;6.908;2024-03-23T00:53:02;15.80;;;4.57;;
23684;SDS011;12020;51.384;6.908;2024-03-23T00:55:30;12.35;;;4.40;;
23684;SDS011;12020;51.384;6.908;2024-03-23T00:58:00;18.00;;;5.07;;
23684;SDS011;12020;51.384;6.908;2024-03-23T01:00:26;13.93;;;4.85;;
23684;SDS011;12020;51.384;6.908;2024-03-23T01:02:52;13.98;;;4.32;;
23684;SDS011;12020;51.384;6.908;2024-03-23T01:05:24;13.27;;;4.40;;
23684;SDS011;12020;51.384;6.908;2024-03-23T01:07:50;14.40;;;4.68;;
23684;SDS011;12020;51.384;6.908;2024-03-23T01:12:46;15.90;;;5.43;;
23684;SDS011;12020;51.384;6.908;2024-03-23T01:15:12;16.70;;;5.95;;
23684;SDS011;12020;51.384;6.908;2024-03-23T01:17:37;13.57;;;4.15;;
23684;SDS011;12020;51.384;6.908;2024-03-23T01:20:03;12.43;;;4.40;;
23684;SDS011;12020;51.384;6.908;2024-03-23T01:22:31;11.93;;;3.67;;
23684;SDS011;12020;51.384;6.908;2024-03-23T01:25:09;10.05;;;3.10;;
23684;SDS011;12020;51.384;6.908;2024-03-23T01:27:35;9.40;;;3.10;;
23684;SDS011;12020;51.384;6.908;2024-03-23T01:30:01;9.00;;;2.70;;
23684;SDS011;12020;51.384;6.908;2024-03-23T01:32:28;7.75;;;2.53;;
23684;SDS011;12020;51.384;6.908;2024-03-23T01:34:53;9.27;;;2.67;;
23684;SDS011;12020;51.384;6.908;2024-03-23T01:37:20;6.97;;;2.25;;
23684;SDS011;12020;51.384;6.908;2024-03-23T01:39:53;7.60;;;2.20;;
23684;SDS011;12020;51.384;6.908;2024-03-23T01:42:20;8.63;;;2.70;;
23684;SDS011;12020;51.384;6.908;2024-03-23T01:44:47;7.47;;;2.70;;
23684;SDS011;12020;51.384;6.908;2024-03-23T01:47:15;7.00;;;2.20;;
23684;SDS011;12020;51.384;6.908;2024-03-23T01:49:44;7.57;;;2.60;;
23684;SDS011;12020;51.384;6.908;2024-03-23T01:54:41;6.10;;;2.23;;
23684;SDS011;12020;51.384;6.908;2024-03-23T01:57:15;6.53;;;2.50;;
23684;SDS011;12020;51.384;6.908;2024-03-23T01:59:44;6.38;;;2.28;;
23684;SDS011;12020;51.384;6.908;2024-03-23T02:02:10;6.95;;;2.22;;
23684;SDS011;12020;51.384;6.908;2024-03-23T02:04:36;7.97;;;2.22;;
23684;SDS011;12020;51.384;6.908;2024-03-23T02:07:03;9.73;;;2.90;;
23684;SDS011;12020;51.384;6.908;2024-03-23T02:09:46;7.50;;;2.38;;
23684;SDS011;12020;51.384;6.908;2024-03-23T02:12:20;6.60;;;2.20;;
23684;SDS011;12020;51.384;6.908;2024-03-23T02:14:46;8.40;;;2.40;;
23684;SDS011;12020;51.384;6.908;2024-03-23T02:17:20;6.27;;;2.23;;
23684;SDS011;12020;51.384;6.908;2024-03-23T02:19:46;7.40;;;2.60;;
23684;SDS011;12020;51.384;6.908;2024-03-23T02:22:35;6.75;;;2.70;;
23684;SDS011;12020;51.384;6.908;2024-03-23T02:25:09;6.35;;;2.50;;
23684;SDS011;12020;51.384;6.908;2024-03-23T02:27:35;8.25;;;2.80;;
23684;SDS011;12020;51.384;6.908;2024-03-23T02:32:33;9.38;;;2.83;;
23684;SDS011;12020;51.384;6.908;2024-03-23T02:34:59;8.40;;;2.57;;
23684;SDS011;12020;51.384;6.908;2024-03-23T02:37:27;8.70;;;2.83;;
23684;SDS011;12020;51.384;6.908;2024-03-23T02:39:53;7.20;;;2.22;;
23684;SDS011;12020;51.384;6.908;2024-03-23T02:42:20;6.57;;;2.35;;
23684;SDS011;12020;51.384;6.908;2024-03-23T02:44:48;8.65;;;2.67;;
23684;SDS011;12020;51.384;6.908;2024-03-23T02:47:20;6.18;;;2.08;;
23684;SDS011;12020;51.384;6.908;2024-03-23T02:52:17;6.43;;;2.42;;
23684;SDS011;12020;51.384;6.908;2024-03-23T02:54:43;6.45;;;2.60;;
23684;SDS011;12020;51.384;6.908;2024-03-23T02:57:11;7.50;;;2.70;;
23684;SDS011;12020;51.384;6.908;2024-03-23T02:59:38;6.95;;;2.65;;
23684;SDS011;12020;51.384;6.908;2024-03-23T03:02:06;7.50;;;2.40;;
23684;SDS011;12020;51.384;6.908;2024-03-23T03:04:35;8.57;;;2.67;;
23684;SDS011;12020;51.384;6.908;2024-03-23T03:07:03;6.80;;;2.50;;
23684;SDS011;12020;51.384;6.908;2024-03-23T03:09:31;7.65;;;2.30;;
23684;SDS011;12020;51.384;6.908;2024-03-23T03:11:58;7.45;;;2.75;;
23684;SDS011;12020;51.384;6.908;2024-03-23T03:14:30;6.18;;;2.38;;
23684;SDS011;12020;51.384;6.908;2024-03-23T03:16:56;6.78;;;2.78;;
23684;SDS011;12020;51.384;6.908;2024-03-23T03:19:23;6.88;;;2.80;;
23684;SDS011;12020;51.384;6.908;2024-03-23T03:21:51;8.07;;;2.60;;
23684;SDS011;12020;51.384;6.908;2024-03-23T03:24:16;7.90;;;3.03;;
23684;SDS011;12020;51.384;6.908;2024-03-23T03:26:51;7.13;;;3.00;;
23684;SDS011;12020;51.384;6.908;2024-03-23T03:29:28;6.70;;;3.42;;
23684;SDS011;12020;51.384;6.908;2024-03-23T03:32:02;9.53;;;3.40;;
23684;SDS011;12020;51.384;6.908;2024-03-23T03:34:30;8.43;;;3.60;;
23684;SDS011;12020;51.384;6.908;2024-03-23T03:36:58;7.88;;;3.28;;
23684;SDS011;12020;51.384;6.908;2024-03-23T03:39:24;7.72;;;3.80;;
23684;SDS011;12020;51.384;6.908;2024-03-23T03:41:51;10.57;;;3.45;;
23684;SDS011;12020;51.384;6.908;2024-03-23T03:44:17;7.75;;;3.58;;
23684;SDS011;12020;51.384;6.908;2024-03-23T03:46:45;9.80;;;3.70;;
23684;SDS011;12020;51.384;6.908;2024-03-23T03:49:12;9.60;;;3.67;;
23684;SDS011;12020;51.384;6.908;2024-03-23T03:51:39;9.10;;;4.00;;
23684;SDS011;12020;51.384;6.908;2024-03-23T03:56:35;9.70;;;3.80;;
23684;SDS011;12020;51.384;6.908;2024-03-23T03:59:08;8.53;;;3.47;;
23684;SDS011;12020;51.384;6.908;2024-03-23T04:01:35;7.80;;;3.40;;
23684;SDS011;12020;51.384;6.908;2024-03-23T04:04:01;10.20;;;3.53;;
23684;SDS011;12020;51.384;6.908;2024-03-23T04:06:28;10.50;;;3.80;;
23684;SDS011;12020;51.384;6.908;2024-03-23T04:08:55;9.05;;;3.50;;
23684;SDS011;12020;51.384;6.908;2024-03-23T04:11:31;9.05;;;3.78;;
23684;SDS011;12020;51.384;6.908;2024-03-23T04:14:03;9.63;;;3.60;;
23684;SDS011;12020;51.384;6.908;2024-03-23T04:16:29;8.50;;;3.65;;
23684;SDS011;12020;51.384;6.908;2024-03-23T04:19:00;8.20;;;4.00;;
23684;SDS011;12020;51.384;6.908;2024-03-23T04:21:27;10.05;;;4.15;;
23684;SDS011;12020;51.384;6.908;2024-03-23T04:23:59;11.13;;;4.38;;
23684;SDS011;12020;51.384;6.908;2024-03-23T04:26:26;9.20;;;3.87;;
23684;SDS011;12020;51.384;6.908;2024-03-23T04:28:54;9.55;;;3.90;;
23684;SDS011;12020;51.384;6.908;2024-03-23T04:31:22;10.20;;;4.03;;
23684;SDS011;12020;51.384;6.908;2024-03-23T04:36:19;10.70;;;4.03;;
23684;SDS011;12020;51.384;6.908;2024-03-23T04:38:46;10.40;;;3.78;;
23684;SDS011;12020;51.384;6.908;2024-03-23T04:41:17;8.63;;;3.38;;
23684;SDS011;12020;51.384;6.908;2024-03-23T04:43:45;10.48;;;3.92;;
23684;SDS011;12020;51.384;6.908;2024-03-23T04:46:17;10.75;;;3.65;;
23684;SDS011;12020;51.384;6.908;2024-03-23T04:48:44;11.00;;;3.60;;
23684;SDS011;12020;51.384;6.908;2024-03-23T04:51:10;8.05;;;3.45;;
23684;SDS011;12020;51.384;6.908;2024-03-23T04:53:42;8.85;;;3.28;;
23684;SDS011;12020;51.384;6.908;2024-03-23T04:56:08;9.90;;;3.40;;
23684;SDS011;12020;51.384;6.908;2024-03-23T04:58:35;8.43;;;3.50;;
23684;SDS011;12020;51.384;6.908;2024-03-23T05:01:01;9.43;;;3.20;;
23684;SDS011;12020;51.384;6.908;2024-03-23T05:03:26;8.82;;;3.70;;
23684;SDS011;12020;51.384;6.908;2024-03-23T05:08:24;8.43;;;3.35;;
23684;SDS011;12020;51.384;6.908;2024-03-23T05:10:53;9.00;;;3.55;;
23684;SDS011;12020;51.384;6.908;2024-03-23T05:13:20;10.23;;;3.43;;
23684;SDS011;12020;51.384;6.908;2024-03-23T05:15:51;11.05;;;4.10;;
23684;SDS011;12020;51.384;6.908;2024-03-23T05:18:22;11.13;;;4.50;;
23684;SDS011;12020;51.384;6.908;2024-03-23T05:20:55;10.50;;;4.05;;
23684;SDS011;12020;51.384;6.908;2024-03-23T05:23:31;9.95;;;4.03;;
23684;SDS011;12020;51.384;6.908;2024-03-23T05:25:56;11.37;;;4.03;;
23684;SDS011;12020;51.384;6.908;2024-03-23T05:28:24;9.87;;;4.40;;
23684;SDS011;12020;51.384;6.908;2024-03-23T05:30:53;10.43;;;4.40;;
23684;SDS011;12020;51.384;6.908;2024-03-23T05:33:21;10.00;;;4.75;;
23684;SDS011;12020;51.384;6.908;2024-03-23T05:35:56;10.48;;;4.25;;
23684;SDS011;12020;51.384;6.908;2024-03-23T05:38:24;9.73;;;4.45;;
23684;SDS011;12020;51.384;6.908;2024-03-23T05:40:59;12.43;;;4.60;;
23684;SDS011;12020;51.384;6.908;2024-03-23T05:43:26;9.68;;;4.68;;
23684;SDS011;12020;51.384;6.908;2024-03-23T05:46:03;10.93;;;5.30;;
23684;SDS011;12020;51.384;6.908;2024-03-23T05:48:37;12.63;;;5.38;;
23684;SDS011;12020;51.384;6.908;2024-03-23T05:51:04;10.95;;;5.40;;
23684;SDS011;12020;51.384;6.908;2024-03-23T05:56:05;13.05;;;6.15;;
23684;SDS011;12020;51.384;6.908;2024-03-23T05:58:33;12.63;;;6.15;;
23684;SDS011;12020;51.384;6.908;2024-03-23T06:01:02;12.47;;;6.10;;
23684;SDS011;12020;51.384;6.908;2024-03-23T06:03:28;11.20;;;6.20;;
23684;SDS011;12020;51.384;6.908;2024-03-23T06:05:57;12.20;;;6.30;;
23684;SDS011;12020;51.384;6.908;2024-03-23T06:08:22;10.35;;;6.03;;
23684;SDS011;12020;51.384;6.908;2024-03-23T06:10:49;10.75;;;6.63;;
23684;SDS011;12020;51.384;6.908;2024-03-23T06:13:16;12.45;;;7.30;;
23684;SDS011;12020;51.384;6.908;2024-03-23T06:15:44;11.52;;;7.00;;
23684;SDS011;12020;51.384;6.908;2024-03-23T06:18:19;15.15;;;7.78;;
23684;SDS011;12020;51.384;6.908;2024-03-23T06:20:47;13.18;;;7.30;;
23684;SDS011;12020;51.384;6.908;2024-03-23T06:23:13;15.03;;;7.50;;
23684;SDS011;12020;51.384;6.908;2024-03-23T06:25:41;16.20;;;8.63;;
23684;SDS011;12020;51.384;6.908;2024-03-23T06:28:08;14.43;;;8.60;;
23684;SDS011;12020;51.384;6.908;2024-03-23T06:30:34;15.65;;;9.32;;
23684;SDS011;12020;51.384;6.908;2024-03-23T06:33:01;17.75;;;9.45;;
23684;SDS011;12020;51.384;6.908;2024-03-23T06:35:29;16.90;;;9.77;;
23684;SDS011;12020;51.384;6.908;2024-03-23T06:37:58;15.82;;;10.30;;
23684;SDS011;12020;51.384;6.908;2024-03-23T06:40:41;16.75;;;9.50;;
23684;SDS011;12020;51.384;6.908;2024-03-23T06:43:13;15.95;;;11.32;;
23684;SDS011;12020;51.384;6.908;2024-03-23T06:45:39;16.30;;;10.70;;
23684;SDS011;12020;51.384;6.908;2024-03-23T06:48:07;21.33;;;10.10;;
23684;SDS011;12020;51.384;6.908;2024-03-23T06:53:02;18.42;;;10.30;;
23684;SDS011;12020;51.384;6.908;2024-03-23T06:55:30;14.07;;;10.43;;
23684;SDS011;12020;51.384;6.908;2024-03-23T06:57:57;15.63;;;10.03;;
23684;SDS011;12020;51.384;6.908;2024-03-23T07:00:24;15.52;;;10.27;;
23684;SDS011;12020;51.384;6.908;2024-03-23T07:02:50;17.27;;;10.50;;
23684;SDS011;12020;51.384;6.908;2024-03-23T07:05:17;16.23;;;9.80;;
23684;SDS011;12020;51.384;6.908;2024-03-23T07:07:44;16.42;;;9.88;;
23684;SDS011;12020;51.384;6.908;2024-03-23T07:10:11;14.82;;;10.05;;
23684;SDS011;12020;51.384;6.908;2024-03-23T07:12:37;16.42;;;9.57;;
23684;SDS011;12020;51.384;6.908;2024-03-23T07:15:03;16.23;;;8.80;;
23684;SDS011;12020;51.384;6.908;2024-03-23T07:17:29;17.27;;;9.85;;
23684;SDS011;12020;51.384;6.908;2024-03-23T07:19:54;15.10;;;9.43;;
23684;SDS011;12020;51.384;6.908;2024-03-23T07:22:20;14.98;;;8.95;;
23684;SDS011;12020;51.384;6.908;2024-03-23T07:24:45;21.10;;;9.57;;
23684;SDS011;12020;51.384;6.908;2024-03-23T07:27:11;15.70;;;8.85;;
23684;SDS011;12020;51.384;6.908;2024-03-23T07:29:37;16.88;;;8.63;;
23684;SDS011;12020;51.384;6.908;2024-03-23T07:32:02;16.92;;;9.15;;
23684;SDS011;12020;51.384;6.908;2024-03-23T07:34:28;16.65;;;8.82;;
23684;SDS011;12020;51.384;6.908;2024-03-23T07:36:54;13.23;;;8.00;;
23684;SDS011;12020;51.384;6.908;2024-03-23T07:39:19;16.58;;;8.57;;
23684;SDS011;12020;51.384;6.908;2024-03-23T07:41:45;17.30;;;8.13;;
23684;SDS011;12020;51.384;6.908;2024-03-23T07:44:10;15.47;;;8.27;;
23684;SDS011;12020;51.384;6.908;2024-03-23T07:46:36;16.37;;;8.10;;
23684;SDS011;12020;51.384;6.908;2024-03-23T07:49:04;15.13;;;7.40;;
23684;SDS011;12020;51.384;6.908;2024-03-23T07:51:29;13.87;;;7.40;;
23684;SDS011;12020;51.384;6.908;2024-03-23T07:53:55;13.03;;;7.23;;
23684;SDS011;12020;51.384;6.908;2024-03-23T07:56:21;16.43;;;7.23;;
23684;SDS011;12020;51.384;6.908;2024-03-23T07:58:48;15.40;;;7.38;;
23684;SDS011;12020;51.384;6.908;2024-03-23T08:01:15;15.30;;;6.33;;
23684;SDS011;12020;51.384;6.908;2024-03-23T08:03:42;10.70;;;6.32;;
23684;SDS011;12020;51.384;6.908;2024-03-23T08:06:12;11.17;;;5.93;;
23684;SDS011;12020;51.384;6.908;2024-03-23T08:08:44;14.02;;;6.45;;
23684;SDS011;12020;51.384;6.908;2024-03-23T08:11:10;12.40;;;5.75;;
23684;SDS011;12020;51.384;6.908;2024-03-23T08:13:38;11.55;;;6.00;;
23684;SDS011;12020;51.384;6.908;2024-03-23T08:16:05;14.05;;;6.45;;
23684;SDS011;12020;51.384;6.908;2024-03-23T08:18:31;13.57;;;6.00;;
23684;SDS011;12020;51.384;6.908;2024-03-23T08:21:00;11.53;;;6.00;;
23684;SDS011;12020;51.384;6.908;2024-03-23T08:23:31;12.52;;;5.45;;
23684;SDS011;12020;51.384;6.908;2024-03-23T08:26:06;12.48;;;5.63;;
23684;SDS011;12020;51.384;6.908;2024-03-23T08:28:33;13.50;;;5.72;;
23684;SDS011;12020;51.384;6.908;2024-03-23T08:31:09;13.07;;;5.80;;
23684;SDS011;12020;51.384;6.908;2024-03-23T08:33:36;12.63;;;5.60;;
23684;SDS011;12020;51.384;6.908;2024-03-23T08:36:04;15.35;;;5.85;;
23684;SDS011;12020;51.384;6.908;2024-03-23T08:38:31;11.60;;;5.72;;
23684;SDS011;12020;51.384;6.908;2024-03-23T08:41:00;14.63;;;5.57;;
23684;SDS011;12020;51.384;6.908;2024-03-23T08:43:27;11.45;;;6.18;;
23684;SDS011;12020;51.384;6.908;2024-03-23T08:46:02;7.25;;;3.50;;
23684;SDS011;12020;51.384;6.908;2024-03-23T08:48:32;5.25;;;3.08;;
23684;SDS011;12020;51.384;6.908;2024-03-23T08:51:08;4.15;;;2.30;;
23684;SDS011;12020;51.384;6.908;2024-03-23T08:53:35;6.05;;;1.95;;
23684;SDS011;12020;51.384;6.908;2024-03-23T08:56:01;3.40;;;1.40;;
23684;SDS011;12020;51.384;6.908;2024-03-23T08:58:28;3.60;;;1.63;;
23684;SDS011;12020;51.384;6.908;2024-03-23T09:00:55;3.17;;;1.38;;
23684;SDS011;12020;51.384;6.908;2024-03-23T09:03:25;4.47;;;1.58;;
23684;SDS011;12020;51.384;6.908;2024-03-23T09:05:51;4.13;;;1.70;;
23684;SDS011;12020;51.384;6.908;2024-03-23T09:08:17;3.40;;;1.80;;
23684;SDS011;12020;51.384;6.908;2024-03-23T09:10:43;4.35;;;1.80;;
23684;SDS011;12020;51.384;6.908;2024-03-23T09:13:09;5.53;;;2.70;;
23684;SDS011;12020;51.384;6.908;2024-03-23T09:15:36;5.03;;;3.55;;
23684;SDS011;12020;51.384;6.908;2024-03-23T09:18:03;8.60;;;5.68;;
23684;SDS011;12020;51.384;6.908;2024-03-23T09:20:29;8.07;;;5.43;;
23684;SDS011;12020;51.384;6.908;2024-03-23T09:22:58;11.30;;;5.65;;
23684;SDS011;12020;51.384;6.908;2024-03-23T09:25:23;8.00;;;5.28;;
23684;SDS011;12020;51.384;6.908;2024-03-23T09:27:49;9.23;;;5.60;;
23684;SDS011;12020;51.384;6.908;2024-03-23T09:30:15;9.70;;;5.63;;
23684;SDS011;12020;51.384;6.908;2024-03-23T09:32:43;10.43;;;5.80;;
23684;SDS011;12020;51.384;6.908;2024-03-23T09:35:09;8.77;;;5.70;;
23684;SDS011;12020;51.384;6.908;2024-03-23T09:37:35;12.57;;;5.38;;
23684;SDS011;12020;51.384;6.908;2024-03-23T09:40:01;10.33;;;5.17;;
23684;SDS011;12020;51.384;6.908;2024-03-23T09:42:28;7.63;;;4.68;;
23684;SDS011;12020;51.384;6.908;2024-03-23T09:44:53;9.13;;;4.73;;
23684;SDS011;12020;51.384;6.908;2024-03-23T09:47:22;10.40;;;4.65;;
23684;SDS011;12020;51.384;6.908;2024-03-23T09:49:50;10.15;;;4.88;;
23684;SDS011;12020;51.384;6.908;2024-03-23T09:52:15;11.57;;;5.90;;
23684;SDS011;12020;51.384;6.908;2024-03-23T09:54:41;11.77;;;5.80;;
23684;SDS011;12020;51.384;6.908;2024-03-23T09:57:07;11.02;;;5.47;;
23684;SDS011;12020;51.384;6.908;2024-03-23T09:59:33;10.65;;;5.18;;
23684;SDS011;12020;51.384;6.908;2024-03-23T10:02:01;7.30;;;3.13;;
23684;SDS011;12020;51.384;6.908;2024-03-23T10:04:40;8.35;;;2.90;;
23684;SDS011;12020;51.384;6.908;2024-03-23T10:07:12;8.88;;;3.03;;
23684;SDS011;12020;51.384;6.908;2024-03-23T10:09:39;6.90;;;2.80;;
23684;SDS011;12020;51.384;6.908;2024-03-23T10:12:12;6.82;;;2.67;;
23684;SDS011;12020;51.384;6.908;2024-03-23T10:14:39;7.40;;;3.08;;
23684;SDS011;12020;51.384;6.908;2024-03-23T10:17:17;8.40;;;3.20;;
23684;SDS011;12020;51.384;6.908;2024-03-23T10:19:51;9.02;;;3.22;;
23684;SDS011;12020;51.384;6.908;2024-03-23T10:22:21;7.57;;;2.92;;
23684;SDS011;12020;51.384;6.908;2024-03-23T10:24:48;6.60;;;2.50;;
23684;SDS011;12020;51.384;6.908;2024-03-23T10:29:46;6.85;;;2.45;;
23684;SDS011;12020;51.384;6.908;2024-03-23T10:32:13;7.43;;;2.78;;
23684;SDS011;12020;51.384;6.908;2024-03-23T10:34:40;9.15;;;2.70;;
23684;SDS011;12020;51.384;6.908;2024-03-23T10:37:06;5.68;;;2.22;;
23684;SDS011;12020;51.384;6.908;2024-03-23T10:39:42;7.43;;;2.55;;
23684;SDS011;12020;51.384;6.908;2024-03-23T10:42:08;6.75;;;2.60;;
23684;SDS011;12020;51.384;6.908;2024-03-23T10:44:37;7.93;;;2.35;;
23684;SDS011;12020;51.384;6.908;2024-03-23T10:47:03;6.28;;;2.38;;
23684;SDS011;12020;51.384;6.908;2024-03-23T10:49:31;2.15;;;0.73;;
23684;SDS011;12020;51.384;6.908;2024-03-23T10:51:58;2.72;;;0.73;;
23684;SDS011;12020;51.384;6.908;2024-03-23T10:54:25;1.85;;;0.70;;
23684;SDS011;12020;51.384;6.908;2024-03-23T10:57:04;2.57;;;0.67;;
23684;SDS011;12020;51.384;6.908;2024-03-23T10:59:33;2.53;;;0.70;;
23684;SDS011;12020;51.384;6.908;2024-03-23T11:02:00;2.80;;;0.80;;
23684;SDS011;12020;51.384;6.908;2024-03-23T11:04:31;1.87;;;1.00;;
23684;SDS011;12020;51.384;6.908;2024-03-23T11:07:01;4.13;;;1.10;;
23684;SDS011;12020;51.384;6.908;2024-03-23T11:12:48;1.77;;;1.00;;
23684;SDS011;12020;51.384;6.908;2024-03-23T11:15:01;4.33;;;1.10;;
23684;SDS011;12020;51.384;6.908;2024-03-23T11:20:03;2.60;;;1.60;;
23684;SDS011;12020;51.384;6.908;2024-03-23T11:22:46;3.30;;;1.40;;
23684;SDS011;12020;51.384;6.908;2024-03-23T11:27:58;2.35;;;1.15;;
23684;SDS011;12020;51.384;6.908;2024-03-23T11:30:36;3.28;;;1.10;;
23684;SDS011;12020;51.384;6.908;2024-03-23T11:33:03;4.27;;;1.40;;
23684;SDS011;12020;51.384;6.908;2024-03-23T11:35:39;3.97;;;1.48;;
23684;SDS011;12020;51.384;6.908;2024-03-23T11:38:09;2.45;;;1.30;;
23684;SDS011;12020;51.384;6.908;2024-03-23T11:40:36;2.95;;;1.20;;
23684;SDS011;12020;51.384;6.908;2024-03-23T11:43:07;4.55;;;1.60;;
23684;SDS011;12020;51.384;6.908;2024-03-23T11:45:50;2.72;;;1.40;;
23684;SDS011;12020;51.384;6.908;2024-03-23T11:48:23;3.55;;;1.63;;
23684;SDS011;12020;51.384;6.908;2024-03-23T11:50:51;3.55;;;1.42;;
23684;SDS011;12020;51.384;6.908;2024-03-23T11:53:21;3.58;;;1.40;;
23684;SDS011;12020;51.384;6.908;2024-03-23T11:55:51;3.40;;;1.50;;
23684;SDS011;12020;51.384;6.908;2024-03-23T11:58:18;2.90;;;1.50;;
23684;SDS011;12020;51.384;6.908;2024-03-23T12:00:51;3.43;;;1.63;;
23684;SDS011;12020;51.384;6.908;2024-03-23T12:03:24;2.50;;;1.10;;
23684;SDS011;12020;51.384;6.908;2024-03-23T12:05:54;2.53;;;0.93;;
23684;SDS011;12020;51.384;6.908;2024-03-23T12:08:24;2.15;;;0.85;;
23684;SDS011;12020;51.384;6.908;2024-03-23T12:11:14;1.30;;;0.73;;
23684;SDS011;12020;51.384;6.908;2024-03-23T12:13:41;1.40;;;0.70;;
23684;SDS011;12020;51.384;6.908;2024-03-23T12:16:13;2.53;;;0.80;;
23684;SDS011;12020;51.384;6.908;2024-03-23T12:18:43;3.40;;;1.00;;
23684;SDS011;12020;51.384;6.908;2024-03-23T12:21:10;2.72;;;0.90;;
23684;SDS011;12020;51.384;6.908;2024-03-23T12:23:38;3.03;;;1.03;;
23684;SDS011;12020;51.384;6.908;2024-03-23T12:26:04;2.65;;;0.93;;
23684;SDS011;12020;51.384;6.908;2024-03-23T12:28:30;3.63;;;1.02;;
23684;SDS011;12020;51.384;6.908;2024-03-23T12:30:55;2.60;;;1.25;;
23684;SDS011;12020;51.384;6.908;2024-03-23T12:33:21;2.15;;;1.10;;
23684;SDS011;12020;51.384;6.908;2024-03-23T12:35:50;4.23;;;1.40;;
23684;SDS011;12020;51.384;6.908;2024-03-23T12:38:16;2.87;;;1.10;;
23684;SDS011;12020;51.384;6.908;2024-03-23T12:40:51;4.80;;;1.48;;
23684;SDS011;12020;51.384;6.908;2024-03-23T12:43:21;3.58;;;1.40;;
23684;SDS011;12020;51.384;6.908;2024-03-23T12:45:52;4.25;;;1.80;;
23684;SDS011;12020;51.384;6.908;2024-03-23T12:48:18;3.85;;;1.85;;
23684;SDS011;12020;51.384;6.908;2024-03-23T12:50:45;4.28;;;1.75;;
23684;SDS011;12020;51.384;6.908;2024-03-23T12:53:10;3.35;;;1.60;;
23684;SDS011;12020;51.384;6.908;2024-03-23T12:55:37;4.20;;;1.97;;
23684;SDS011;12020;51.384;6.908;2024-03-23T12:58:09;4.07;;;2.08;;
23684;SDS011;12020;51.384;6.908;2024-03-23T13:00:36;3.38;;;1.60;;
23684;SDS011;12020;51.384;6.908;2024-03-23T13:03:02;3.15;;;1.52;;
23684;SDS011;12020;51.384;6.908;2024-03-23T13:05:29;3.30;;;1.30;;
23684;SDS011;12020;51.384;6.908;2024-03-23T13:07:56;2.25;;;1.23;;
23684;SDS011;12020;51.384;6.908;2024-03-23T13:10:22;2.08;;;1.30;;
23684;SDS011;12020;51.384;6.908;2024-03-23T13:12:51;2.03;;;1.30;;
23684;SDS011;12020;51.384;6.908;2024-03-23T13:15:23;3.22;;;1.40;;
23684;SDS011;12020;51.384;6.908;2024-03-23T13:17:55;3.92;;;1.50;;
23684;SDS011;12020;51.384;6.908;2024-03-23T13:20:25;2.85;;;1.70;;
23684;SDS011;12020;51.384;6.908;2024-03-23T13:22:55;3.70;;;1.83;;
23684;SDS011;12020;51.384;6.908;2024-03-23T13:25:27;4.22;;;2.00;;
23684;SDS011;12020;51.384;6.908;2024-03-23T13:27:58;3.72;;;1.85;;
23684;SDS011;12020;51.384;6.908;2024-03-23T13:30:26;4.22;;;2.10;;
23684;SDS011;12020;51.384;6.908;2024-03-23T13:32:52;5.67;;;1.83;;
23684;SDS011;12020;51.384;6.908;2024-03-23T13:40:21;4.78;;;1.70;;
23684;SDS011;12020;51.384;6.908;2024-03-23T13:42:48;4.43;;;1.80;;
23684;SDS011;12020;51.384;6.908;2024-03-23T13:45:16;7.43;;;2.63;;
23684;SDS011;12020;51.384;6.908;2024-03-23T13:47:48;3.65;;;1.52;;
23684;SDS011;12020;51.384;6.908;2024-03-23T13:50:15;4.93;;;2.07;;
23684;SDS011;12020;51.384;6.908;2024-03-23T13:52:48;5.65;;;1.65;;
23684;SDS011;12020;51.384;6.908;2024-03-23T13:55:16;6.25;;;2.00;;
23684;SDS011;12020;51.384;6.908;2024-03-23T13:57:43;4.25;;;1.95;;
23684;SDS011;12020;51.384;6.908;2024-03-23T14:00:09;3.75;;;1.65;;
23684;SDS011;12020;51.384;6.908;2024-03-23T14:02:35;5.95;;;2.03;;
23684;SDS011;12020;51.384;6.908;2024-03-23T14:05:01;4.20;;;1.60;;
23684;SDS011;12020;51.384;6.908;2024-03-23T14:07:27;4.28;;;1.65;;
23684;SDS011;12020;51.384;6.908;2024-03-23T14:09:53;4.90;;;1.50;;
23684;SDS011;12020;51.384;6.908;2024-03-23T14:12:20;3.03;;;1.30;;
23684;SDS011;12020;51.384;6.908;2024-03-23T14:14:46;3.50;;;1.60;;
23684;SDS011;12020;51.384;6.908;2024-03-23T14:17:11;3.28;;;1.15;;
23684;SDS011;12020;51.384;6.908;2024-03-23T14:19:39;3.87;;;1.30;;
23684;SDS011;12020;51.384;6.908;2024-03-23T14:22:05;3.97;;;1.50;;
23684;SDS011;12020;51.384;6.908;2024-03-23T14:24:32;2.50;;;1.10;;
23684;SDS011;12020;51.384;6.908;2024-03-23T14:26:58;3.30;;;1.35;;
23684;SDS011;12020;51.384;6.908;2024-03-23T14:29:28;5.13;;;1.80;;
23684;SDS011;12020;51.384;6.908;2024-03-23T14:31:53;5.97;;;1.87;;
23684;SDS011;12020;51.384;6.908;2024-03-23T14:34:19;3.13;;;1.40;;
23684;SDS011;12020;51.384;6.908;2024-03-23T14:36:45;4.15;;;1.73;;
23684;SDS011;12020;51.384;6.908;2024-03-23T14:39:10;2.88;;;1.30;;
23684;SDS011;12020;51.384;6.908;2024-03-23T14:41:37;5.33;;;1.50;;
23684;SDS011;12020;51.384;6.908;2024-03-23T14:44:03;5.53;;;1.40;;
23684;SDS011;12020;51.384;6.908;2024-03-23T14:46:29;4.43;;;1.55;;
23684;SDS011;12020;51.384;6.908;2024-03-23T14:48:54;4.53;;;1.60;;
23684;SDS011;12020;51.384;6.908;2024-03-23T14:51:20;3.20;;;1.50;;
23684;SDS011;12020;51.384;6.908;2024-03-23T14:53:47;3.85;;;1.33;;
23684;SDS011;12020;51.384;6.908;2024-03-23T14:56:13;3.95;;;1.75;;
23684;SDS011;12020;51.384;6.908;2024-03-23T14:58:40;3.30;;;1.40;;
23684;SDS011;12020;51.384;6.908;2024-03-23T15:01:09;2.60;;;1.17;;
23684;SDS011;12020;51.384;6.908;2024-03-23T15:03:38;3.22;;;1.38;;
23684;SDS011;12020;51.384;6.908;2024-03-23T15:06:07;3.13;;;1.33;;
23684;SDS011;12020;51.384;6.908;2024-03-23T15:08:34;3.43;;;1.40;;
23684;SDS011;12020;51.384;6.908;2024-03-23T15:11:01;3.95;;;1.50;;
23684;SDS011;12020;51.384;6.908;2024-03-23T15:13:35;3.85;;;1.52;;
23684;SDS011;12020;51.384;6.908;2024-03-23T15:16:02;3.85;;;1.40;;
23684;SDS011;12020;51.384;6.908;2024-03-23T15:18:29;4.47;;;1.50;;
23684;SDS011;12020;51.384;6.908;2024-03-23T15:20:55;4.00;;;1.60;;
23684;SDS011;12020;51.384;6.908;2024-03-23T15:23:22;4.43;;;1.58;;
23684;SDS011;12020;51.384;6.908;2024-03-23T15:25:58;3.38;;;1.30;;
23684;SDS011;12020;51.384;6.908;2024-03-23T15:28:25;4.68;;;1.67;;
23684;SDS011;12020;51.384;6.908;2024-03-23T15:31:04;3.28;;;1.70;;
23684;SDS011;12020;51.384;6.908;2024-03-23T15:33:30;4.93;;;1.70;;
23684;SDS011;12020;51.384;6.908;2024-03-23T15:36:02;2.67;;;1.30;;
23684;SDS011;12020;51.384;6.908;2024-03-23T15:38:28;4.30;;;1.40;;
23684;SDS011;12020;51.384;6.908;2024-03-23T15:40:57;3.95;;;1.40;;
23684;SDS011;12020;51.384;6.908;2024-03-23T15:43:23;3.35;;;1.20;;
23684;SDS011;12020;51.384;6.908;2024-03-23T15:45:55;3.83;;;1.37;;
23684;SDS011;12020;51.384;6.908;2024-03-23T15:48:21;3.05;;;1.20;;
23684;SDS011;12020;51.384;6.908;2024-03-23T15:50:51;2.67;;;1.20;;
23684;SDS011;12020;51.384;6.908;2024-03-23T15:53:18;3.20;;;1.20;;
23684;SDS011;12020;51.384;6.908;2024-03-23T15:55:57;2.65;;;1.05;;
23684;SDS011;12020;51.384;6.908;2024-03-23T15:58:23;4.03;;;1.40;;
23684;SDS011;12020;51.384;6.908;2024-03-23T16:01:03;2.97;;;1.33;;
23684;SDS011;12020;51.384;6.908;2024-03-23T16:03:36;3.38;;;1.35;;
23684;SDS011;12020;51.384;6.908;2024-03-23T16:06:03;5.55;;;1.55;;
23684;SDS011;12020;51.384;6.908;2024-03-23T16:08:31;2.80;;;1.20;;
23684;SDS011;12020;51.384;6.908;2024-03-23T16:11:02;3.33;;;1.50;;
23684;SDS011;12020;51.384;6.908;2024-03-23T16:13:31;3.70;;;1.10;;
23684;SDS011;12020;51.384;6.908;2024-03-23T16:15:58;3.50;;;1.37;;
23684;SDS011;12020;51.384;6.908;2024-03-23T16:18:24;2.55;;;1.10;;
23684;SDS011;12020;51.384;6.908;2024-03-23T16:20:58;4.32;;;1.33;;